Time;durP1;ratioP1;P1;durP2;ratioP2;P2;SDS_P1;SDS_P2;PMS_P1;PMS_P2;Temp;Humidity;BMP_temperature;BMP_pressure;BME280_temperature;BME280_humidity;BME280_pressure;Samples;Min_cycle;Max_cycle;Signal;HPM_P1;HPM_P2
2022/05/26 00:02:00;;;;;;;65.50;7.28;;;;;;;14.15;90.48;101598.84;4975267;28;20027;-78
2022/05/26 00:04:26;;;;;;;59.00;7.28;;;;;;;14.13;90.55;101599.03;4975141;28;20105;-78
2022/05/26 00:06:52;;;;;;;58.95;8.18;;;;;;;14.12;90.60;101597.38;4975664;28;20064;-77
2022/05/26 00:09:17;;;;;;;48.95;6.55;;;;;;;14.13;90.51;101593.63;4975072;28;20030;-77
2022/05/26 00:11:43;;;;;;;48.60;6.45;;;;;;;14.13;90.56;101606.31;4975429;28;20462;-77
2022/05/26 00:14:09;;;;;;;47.35;7.72;;;;;;;14.12;90.48;101600.06;4962700;28;20018;-78
2022/05/26 00:16:36;;;;;;;61.40;7.60;;;;;;;14.14;90.36;101586.34;4975840;28;20030;-79
2022/05/26 00:19:02;;;;;;;44.83;6.85;;;;;;;14.13;90.23;101595.50;4974896;28;20794;-77
2022/05/26 00:21:27;;;;;;;56.03;7.85;;;;;;;14.15;90.00;101598.84;4957444;28;20015;-77
2022/05/26 00:23:56;;;;;;;50.75;5.95;;;;;;;14.13;89.33;101607.16;4974469;28;20026;-77
2022/05/26 00:26:23;;;;;;;39.90;6.05;;;;;;;14.15;89.17;101602.41;4957477;28;20110;-77
2022/05/26 00:28:48;;;;;;;45.13;5.47;;;;;;;14.16;89.26;101595.94;4957069;28;20027;-77
2022/05/26 00:31:13;;;;;;;42.67;6.22;;;;;;;14.18;88.82;101599.31;4957487;28;20344;-77
2022/05/26 00:33:39;;;;;;;39.80;5.13;;;;;;;14.17;88.70;101602.22;4957142;28;20129;-75
2022/05/26 00:36:09;;;;;;;49.65;6.50;;;;;;;14.14;88.59;101592.63;4974431;28;20061;-76
2022/05/26 00:38:35;;;;;;;47.65;6.00;;;;;;;14.15;88.37;101602.41;4974535;28;20177;-76
2022/05/26 00:41:07;;;;;;;47.50;5.75;;;;;;;14.16;88.66;101609.47;4941943;28;20050;-76
2022/05/26 00:43:33;;;;;;;51.15;6.80;;;;;;;14.16;88.52;101614.91;4957135;28;20109;-76
2022/05/26 00:46:06;;;;;;;39.67;5.88;;;;;;;14.17;88.79;101619.31;4975090;28;20077;-75
2022/05/26 00:48:39;;;;;;;51.42;6.28;;;;;;;14.19;88.77;101614.56;4961772;28;20027;-75
2022/05/26 00:51:04;;;;;;;39.97;5.28;;;;;;;14.17;88.59;101623.88;4944698;28;20090;-76
2022/05/26 00:53:38;;;;;;;40.20;5.55;;;;;;;14.16;88.46;101620.31;4961123;28;20030;-75
2022/05/26 00:56:19;;;;;;;58.50;6.22;;;;;;;14.18;88.35;101626.38;4964333;28;20033;-75
2022/05/26 00:58:46;;;;;;;42.22;6.00;;;;;;;14.19;88.27;101619.97;4982197;28;20035;-75
2022/05/26 01:01:12;;;;;;;47.50;6.18;;;;;;;14.18;88.10;101628.25;4965443;28;20065;-75
2022/05/26 01:03:49;;;;;;;44.10;6.85;;;;;;;14.21;87.92;101630.59;4965124;28;20039;-76
2022/05/26 01:07:03;;;;;;;42.13;5.78;;;;;;;14.19;87.58;101628.09;4988782;28;20065;-75
2022/05/26 01:09:28;;;;;;;39.60;5.10;;;;;;;14.21;87.30;101622.47;4950404;29;20036;-75
2022/05/26 01:11:53;;;;;;;36.58;5.35;;;;;;;14.21;87.37;101636.00;4969869;28;20459;-76
2022/05/26 01:14:27;;;;;;;38.20;4.63;;;;;;;14.19;86.51;101629.94;4989753;28;20115;-76
2022/05/26 01:17:03;;;;;;;38.20;4.97;;;;;;;14.19;86.30;101633.50;4993111;28;20026;-75
2022/05/26 01:19:47;;;;;;;29.77;4.68;;;;;;;14.18;85.60;101629.09;4987940;28;20023;-74
2022/05/26 01:22:20;;;;;;;40.80;6.10;;;;;;;14.17;84.31;101640.97;4957054;28;20038;-76
2022/05/26 01:25:02;;;;;;;34.20;5.03;;;;;;;14.21;83.53;101641.41;4983220;28;20027;-76
2022/05/26 01:27:37;;;;;;;29.35;4.65;;;;;;;14.23;83.25;101632.09;4966503;28;20035;-76
2022/05/26 01:30:05;;;;;;;27.65;4.47;;;;;;;14.22;83.45;101637.69;4964594;28;20090;-77
2022/05/26 01:33:08;;;;;;;32.00;4.53;;;;;;;14.23;83.42;101645.63;4979421;28;20034;-76
2022/05/26 01:35:48;;;;;;;22.70;4.13;;;;;;;14.23;83.54;101650.19;4946891;29;20443;-77
2022/05/26 01:38:28;;;;;;;22.42;3.53;;;;;;;14.22;83.07;101649.38;4943303;29;20079;-76
2022/05/26 01:41:15;;;;;;;24.02;3.65;;;;;;;14.21;82.76;101644.97;4959373;29;20127;-76
2022/05/26 01:44:04;;;;;;;28.10;4.30;;;;;;;14.19;82.75;101649.75;4964970;28;20027;-76
2022/05/26 01:46:38;;;;;;;31.52;3.85;;;;;;;14.19;82.92;101654.28;4963378;28;20065;-75
2022/05/26 01:49:17;;;;;;;33.13;4.22;;;;;;;14.18;83.08;101658.03;4978635;28;20031;-76
2022/05/26 01:51:53;;;;;;;30.83;4.75;;;;;;;14.16;83.34;101655.50;4982405;28;20023;-76
2022/05/26 01:54:33;;;;;;;30.98;4.38;;;;;;;14.15;83.88;101653.00;4961757;28;20038;-76
2022/05/26 01:57:18;;;;;;;24.20;3.03;;;;;;;14.14;84.07;101664.84;4963275;28;20026;-77
2022/05/26 01:59:50;;;;;;;28.65;3.58;;;;;;;14.15;83.95;101656.53;4964279;28;20030;-76
2022/05/26 02:02:22;;;;;;;28.65;3.85;;;;;;;14.17;83.62;101656.38;4964704;28;20077;-76
2022/05/26 02:04:52;;;;;;;25.35;3.75;;;;;;;14.17;83.50;101667.19;4944863;28;20030;-75
2022/05/26 02:07:34;;;;;;;27.20;4.28;;;;;;;14.16;83.37;101660.09;4940324;28;20035;-76
2022/05/26 02:10:04;;;;;;;24.50;3.55;;;;;;;14.17;82.91;101669.91;4973313;28;20113;-76
2022/05/26 02:12:37;;;;;;;28.45;4.22;;;;;;;14.17;82.76;101672.63;4956781;28;20035;-75
2022/05/26 02:15:07;;;;;;;26.08;3.70;;;;;;;14.15;82.82;101670.06;4956786;28;20124;-75
2022/05/26 02:17:36;;;;;;;31.52;3.17;;;;;;;14.13;83.00;101671.28;4956828;28;20038;-75
2022/05/26 02:20:16;;;;;;;17.83;3.38;;;;;;;14.12;82.82;101686.69;4940220;28;20391;-75
2022/05/26 02:22:49;;;;;;;19.35;2.95;;;;;;;14.06;83.07;101682.03;4974016;28;20035;-75
2022/05/26 02:25:23;;;;;;;25.75;4.38;;;;;;;14.01;82.66;101679.03;4941443;28;20030;-76
2022/05/26 02:27:52;;;;;;;28.50;4.55;;;;;;;13.96;82.79;101676.03;4980682;28;20158;-75
2022/05/26 02:30:18;;;;;;;28.63;5.57;;;;;;;13.95;82.83;101687.88;4974420;28;20038;-75
2022/05/26 02:35:25;;;;;;;19.05;4.10;;;;;;;13.84;83.49;101692.69;4761917;23;20055;-33
2022/05/26 02:37:53;;;;;;;24.13;3.75;;;;;;;13.80;83.60;101701.38;4986145;28;20038;-33
2022/05/26 02:40:18;;;;;;;;;;;;;;;13.75;83.94;101707.34;4985732;28;20549;-33
2022/05/26 02:42:48;;;;;;;21.05;3.42;;;;;;;13.71;84.43;101711.41;5006433;28;19909;-34
2022/05/26 02:45:26;;;;;;;16.73;3.92;;;;;;;13.69;84.55;101710.78;4990035;28;20014;-33
2022/05/26 02:48:01;;;;;;;22.48;3.72;;;;;;;13.65;84.83;101709.44;4990200;28;20089;-33
2022/05/26 02:50:46;;;;;;;27.17;3.53;;;;;;;13.64;85.01;101705.06;5004556;28;20038;-33
2022/05/26 02:53:18;;;;;;;27.02;4.00;;;;;;;13.65;85.35;101716.72;5008001;28;20039;-33
2022/05/26 02:55:56;;;;;;;20.30;3.92;;;;;;;13.64;85.43;101709.59;4994005;28;20503;-33
2022/05/26 02:58:49;;;;;;;24.35;3.83;;;;;;;13.62;85.75;101717.91;5011086;28;20026;-35
2022/05/26 03:01:32;;;;;;;23.65;3.60;;;;;;;13.64;85.76;101723.13;4993083;28;20049;-34
2022/05/26 03:04:17;;;;;;;20.05;3.58;;;;;;;13.63;86.00;101713.34;4984125;28;20069;-34
2022/05/26 03:06:49;;;;;;;24.00;3.40;;;;;;;13.60;86.24;101722.66;4973959;28;20023;-35
2022/05/26 03:09:15;;;;;;;24.75;3.67;;;;;;;13.60;86.29;101720.78;4989226;28;20057;-35
2022/05/26 03:11:49;;;;;;;26.95;3.90;;;;;;;13.59;86.09;101721.00;5004091;28;20034;-33
2022/05/26 03:14:17;;;;;;;24.90;3.65;;;;;;;13.61;85.96;101717.09;5002388;28;20045;-32
2022/05/26 03:16:43;;;;;;;28.25;4.40;;;;;;;13.63;86.09;101718.75;4989397;28;20035;-34
2022/05/26 03:19:08;;;;;;;23.40;3.97;;;;;;;13.62;85.89;101728.75;4999610;28;20580;-34
2022/05/26 03:21:35;;;;;;;33.85;4.68;;;;;;;13.63;85.83;101726.88;5007878;28;20173;-34
2022/05/26 03:24:00;;;;;;;36.38;6.03;;;;;;;13.63;85.97;101729.56;5007157;28;20038;-33
2022/05/26 03:26:25;;;;;;;23.30;3.80;;;;;;;13.59;86.00;101726.41;5006599;28;20081;-32
2022/05/26 03:28:51;;;;;;;31.42;4.65;;;;;;;13.56;85.83;101729.44;4987963;28;20045;-37
2022/05/26 03:31:16;;;;;;;24.10;4.38;;;;;;;13.55;85.90;101736.72;5004548;28;20026;-34
2022/05/26 03:41:54;;;;;;;18.75;3.50;;;;;;;13.47;86.06;101733.22;4973636;28;20102;-34
2022/05/26 03:44:20;;;;;;;25.00;3.83;;;;;;;13.44;86.25;101730.91;4970737;28;20027;-34
2022/05/26 03:46:45;;;;;;;28.02;3.92;;;;;;;13.43;86.38;101735.47;4970782;28;20027;-34
2022/05/26 03:49:11;;;;;;;27.00;4.40;;;;;;;13.45;86.15;101732.56;4969695;28;20121;-36
2022/05/26 03:51:36;;;;;;;21.48;3.78;;;;;;;13.45;86.01;101737.97;4988084;28;20038;-32
2022/05/26 03:54:01;;;;;;;21.13;3.65;;;;;;;13.47;86.15;101736.78;4987537;28;20022;-35
2022/05/26 03:56:27;;;;;;;24.67;3.42;;;;;;;13.50;86.00;101741.81;4987521;28;20073;-35
2022/05/26 03:58:52;;;;;;;21.25;3.60;;;;;;;13.53;85.91;101744.19;4988014;28;20042;-34
2022/05/26 04:01:17;;;;;;;17.15;3.95;;;;;;;13.59;85.85;101756.16;4987836;28;20248;-35
2022/05/26 04:03:43;;;;;;;22.50;3.70;;;;;;;13.59;85.59;101746.16;4986294;28;20038;-36
2022/05/26 04:06:08;;;;;;;27.85;4.65;;;;;;;13.63;85.49;101753.91;4986435;28;20031;-35
2022/05/26 04:08:33;;;;;;;25.60;4.05;;;;;;;13.65;85.25;101757.28;4986237;28;20030;-34
2022/05/26 04:10:59;;;;;;;30.15;4.03;;;;;;;13.64;85.16;101769.97;4985850;28;20030;-35
2022/05/26 04:13:24;;;;;;;26.08;4.63;;;;;;;13.64;85.31;101769.13;4987115;28;20037;-33
2022/05/26 04:15:49;;;;;;;29.88;4.72;;;;;;;13.67;85.22;101774.19;4970521;28;20054;-34
2022/05/26 04:18:15;;;;;;;21.13;3.88;;;;;;;13.72;85.26;101782.59;4987659;28;20034;-34
2022/05/26 04:20:41;;;;;;;28.42;3.53;;;;;;;13.75;85.09;101782.25;4986351;28;20046;-34
2022/05/26 04:23:06;;;;;;;19.45;3.38;;;;;;;13.76;84.81;101781.22;4990081;28;20031;-34
2022/05/26 04:25:32;;;;;;;25.35;4.00;;;;;;;13.77;84.61;101786.47;4987607;28;20061;-33
2022/05/26 04:27:57;;;;;;;13.63;3.15;;;;;;;13.79;84.83;101789.81;4988917;28;20042;-33
2022/05/26 04:30:23;;;;;;;16.38;3.42;;;;;;;13.80;84.94;101785.25;4989088;28;20038;-33
2022/05/26 04:32:49;;;;;;;19.08;3.63;;;;;;;13.86;84.50;101797.22;4988929;28;20091;-35
2022/05/26 04:35:15;;;;;;;28.77;4.63;;;;;;;13.81;84.39;101790.47;4988499;28;20047;-34
2022/05/26 04:37:40;;;;;;;17.42;3.22;;;;;;;13.80;84.47;101790.66;4987431;28;20031;-34
2022/05/26 04:40:08;;;;;;;25.48;3.58;;;;;;;13.77;84.74;101791.00;4986969;28;20355;-33
2022/05/26 04:42:35;;;;;;;22.75;3.60;;;;;;;13.74;85.09;101800.31;4987085;28;20034;-33
2022/05/26 04:45:01;;;;;;;30.25;4.38;;;;;;;13.70;85.16;101801.72;4973456;28;20498;-35
2022/05/26 04:47:26;;;;;;;18.63;3.45;;;;;;;13.67;85.41;101804.78;4987378;28;20035;-34
2022/05/26 04:49:51;;;;;;;22.90;3.65;;;;;;;13.72;85.53;101809.66;4988293;28;20038;-35
2022/05/26 04:52:19;;;;;;;19.77;3.50;;;;;;;13.73;84.89;101816.75;4970324;28;20034;-36
2022/05/26 04:54:45;;;;;;;;;;;;;;;13.77;84.66;101813.50;4970375;28;20090;-35
2022/05/26 04:57:12;;;;;;;19.80;3.85;;;;;;;13.83;84.44;101812.78;4968953;28;20036;-33
2022/05/26 04:59:38;;;;;;;20.30;3.15;;;;;;;13.89;84.17;101818.50;4985026;28;20041;-34
2022/05/26 05:02:04;;;;;;;25.55;4.05;;;;;;;13.96;84.31;101820.31;4971671;28;20031;-35
2022/05/26 05:04:30;;;;;;;23.23;3.78;;;;;;;13.96;83.69;101822.19;4969674;28;20094;-35
2022/05/26 05:06:55;;;;;;;22.17;3.55;;;;;;;14.03;83.94;101823.13;4988653;28;20035;-34
2022/05/26 05:09:21;;;;;;;26.73;3.75;;;;;;;14.07;83.46;101823.63;4989051;28;20014;-35
2022/05/26 05:11:47;;;;;;;19.85;3.03;;;;;;;14.16;83.28;101822.53;4986418;28;20035;-33
2022/05/26 05:14:13;;;;;;;24.48;3.28;;;;;;;14.19;82.83;101836.56;4985649;28;20287;-36
2022/05/26 05:16:42;;;;;;;27.70;4.13;;;;;;;14.22;82.92;101840.75;4989396;28;20142;-33
2022/05/26 05:19:08;;;;;;;25.35;2.80;;;;;;;14.34;83.08;101835.75;4986623;28;20046;-34
2022/05/26 05:21:39;;;;;;;19.75;3.53;;;;;;;14.37;82.38;101835.38;4987723;28;20035;-33
2022/05/26 05:24:40;;;;;;;16.80;3.20;;;;;;;14.47;82.08;101835.97;4970900;28;20044;-32
2022/05/26 05:27:11;;;;;;;23.08;3.50;;;;;;;14.49;81.40;101847.47;4955618;28;20051;-32
2022/05/26 05:29:37;;;;;;;15.35;3.25;;;;;;;14.57;81.32;101852.84;4989880;28;20037;-32
2022/05/26 05:32:09;;;;;;;23.80;3.38;;;;;;;14.51;80.58;101850.84;4971075;28;20057;-33
2022/05/26 05:34:42;;;;;;;17.55;2.97;;;;;;;14.63;80.99;101846.66;4970310;28;20046;-32
2022/05/26 05:37:08;;;;;;;24.77;3.55;;;;;;;14.66;80.61;101857.13;4988071;28;20050;-32
2022/05/26 05:39:33;;;;;;;16.25;2.97;;;;;;;14.77;80.76;101857.72;4971402;28;20023;-33
2022/05/26 05:41:59;;;;;;;20.42;3.22;;;;;;;14.85;80.01;101852.22;4988716;28;20090;-33
2022/05/26 05:44:26;;;;;;;17.50;3.95;;;;;;;14.94;79.85;101853.81;4971044;28;20173;-33
2022/05/26 05:46:54;;;;;;;25.75;3.50;;;;;;;15.01;79.23;101856.59;4969780;28;20042;-34
2022/05/26 05:49:26;;;;;;;15.02;2.95;;;;;;;15.07;78.17;101864.84;4969803;28;20031;-33
2022/05/26 05:51:52;;;;;;;22.52;3.50;;;;;;;15.16;78.21;101871.00;4983236;28;20026;-33
2022/05/26 05:54:18;;;;;;;32.70;3.30;;;;;;;15.25;77.65;101877.22;4986451;28;20042;-33
2022/05/26 05:56:44;;;;;;;19.80;2.85;;;;;;;15.38;77.90;101877.38;4988297;28;20042;-33
2022/05/26 05:59:10;;;;;;;23.20;3.00;;;;;;;15.47;76.83;101881.66;4987683;28;20026;-33
2022/05/26 06:01:35;;;;;;;24.33;3.47;;;;;;;15.53;75.68;101880.06;4955004;28;20031;-32
2022/05/26 06:04:00;;;;;;;19.98;3.38;;;;;;;15.69;75.73;101884.47;4988400;28;20038;-33
2022/05/26 06:06:26;;;;;;;23.75;2.70;;;;;;;15.81;75.92;101880.22;4988350;28;20042;-34
2022/05/26 06:08:51;;;;;;;21.02;3.13;;;;;;;15.96;74.75;101875.59;4986216;28;20022;-33
2022/05/26 06:11:17;;;;;;;17.55;3.20;;;;;;;16.10;73.94;101886.59;4989571;28;20498;-33
2022/05/26 06:13:42;;;;;;;21.77;3.38;;;;;;;15.96;72.14;101891.91;4988639;28;20041;-34
2022/05/26 06:16:07;;;;;;;22.13;3.70;;;;;;;15.92;73.07;101893.31;4985858;28;20031;-35
2022/05/26 06:18:33;;;;;;;14.45;2.75;;;;;;;16.26;73.30;101902.66;4987400;28;20069;-33
2022/05/26 06:21:02;;;;;;;16.00;2.50;;;;;;;16.80;70.97;101901.28;4986485;28;20034;-33
2022/05/26 06:23:28;;;;;;;23.45;3.83;;;;;;;17.69;68.08;101897.81;4970077;28;20035;-33
2022/05/26 06:25:53;;;;;;;17.38;2.80;;;;;;;18.65;66.33;101903.91;4989801;28;20046;-33
2022/05/26 06:31:02;;;;;;;18.70;2.95;;;;;;;20.12;59.95;101925.41;4991638;28;20122;-34
2022/05/26 06:38:57;;;;;;;21.38;3.65;;;;;;;20.49;56.76;101933.78;4989711;28;20074;-33
2022/05/26 06:44:06;;;;;;;25.38;3.05;;;;;;;20.67;55.18;101928.44;4992927;28;20114;-33
2022/05/26 06:46:32;;;;;;;21.67;3.78;;;;;;;20.59;55.42;101926.81;4993630;28;20035;-33
2022/05/26 06:48:57;;;;;;;15.90;2.72;;;;;;;20.80;55.78;101935.66;4991129;28;20102;-34
2022/05/26 06:51:26;;;;;;;21.48;3.47;;;;;;;21.11;54.09;101932.00;4995839;28;20069;-32
2022/05/26 06:53:52;;;;;;;18.23;2.83;;;;;;;21.52;53.44;101935.22;4994420;28;20015;-34
2022/05/26 06:56:17;;;;;;;23.58;3.05;;;;;;;21.29;53.37;101939.41;4996123;28;20081;-34
2022/05/26 06:58:42;;;;;;;19.50;3.10;;;;;;;21.68;52.89;101940.91;4988394;28;20018;-34
2022/05/26 07:01:08;;;;;;;19.88;3.72;;;;;;;21.53;52.35;101936.88;4995774;28;20046;-32
2022/05/26 07:03:34;;;;;;;14.00;2.67;;;;;;;22.14;51.54;101944.09;4995239;28;20272;-32
2022/05/26 07:05:59;;;;;;;24.20;3.03;;;;;;;22.28;50.76;101942.06;4995926;28;20022;-33
2022/05/26 07:08:24;;;;;;;17.65;3.17;;;;;;;22.75;49.57;101945.75;4994286;28;20035;-32
2022/05/26 07:10:50;;;;;;;18.63;3.30;;;;;;;23.04;48.22;101956.03;4993026;28;20034;-32
2022/05/26 07:13:16;;;;;;;29.13;4.10;;;;;;;22.49;49.30;101952.47;4994073;28;20023;-33
2022/05/26 07:15:41;;;;;;;19.98;3.78;;;;;;;22.67;49.20;101953.47;4993933;28;20026;-33
2022/05/26 07:18:08;;;;;;;19.27;3.55;;;;;;;22.60;47.88;101948.09;4995261;28;20157;-34
2022/05/26 07:20:36;;;;;;;23.33;3.25;;;;;;;22.82;47.92;101956.59;4992706;28;20038;-32
2022/05/26 07:23:02;;;;;;;23.88;3.53;;;;;;;22.82;47.61;101945.63;4994039;28;20034;-33
2022/05/26 07:25:28;;;;;;;23.88;4.13;;;;;;;22.72;48.09;101946.22;4996240;28;20029;-34
2022/05/26 07:27:53;;;;;;;25.95;3.38;;;;;;;22.95;47.62;101948.13;4994335;28;20031;-38
2022/05/26 07:30:18;;;;;;;30.92;3.65;;;;;;;23.39;47.35;101956.88;4994816;28;20039;-34
2022/05/26 07:32:44;;;;;;;24.17;3.67;;;;;;;24.04;45.37;101960.44;4976836;28;20026;-36
2022/05/26 07:35:09;;;;;;;22.13;3.53;;;;;;;24.15;43.40;101961.50;4994184;28;20049;-36
2022/05/26 07:43:05;;;;;;;29.95;3.95;;;;;;;22.98;46.71;101966.06;4974629;29;20086;-38
2022/05/26 07:45:30;;;;;;;;;;;;;;;23.15;47.09;101971.69;4975020;29;20011;-38
2022/05/26 07:47:55;;;;;;;30.80;4.47;;;;;;;23.15;46.92;101977.19;4975484;29;19917;-37
2022/05/26 07:50:21;;;;;;;22.38;3.85;;;;;;;23.49;45.08;101971.94;4975301;29;20035;-34
2022/05/26 07:52:47;;;;;;;27.95;4.82;;;;;;;23.84;44.96;101974.63;4974940;29;20034;-35
2022/05/26 07:55:13;;;;;;;28.23;4.07;;;;;;;24.43;44.33;101979.88;4958041;29;20027;-37
2022/05/26 07:57:38;;;;;;;30.25;3.78;;;;;;;24.11;43.73;101983.13;4975112;29;20463;-36
2022/05/26 08:00:04;;;;;;;25.85;4.13;;;;;;;24.61;43.93;101981.63;4975494;29;20031;-37
2022/05/26 08:02:29;;;;;;;23.48;3.85;;;;;;;24.05;43.88;101982.22;4974783;29;20015;-34
2022/05/26 08:04:55;;;;;;;29.77;4.38;;;;;;;23.38;45.73;101993.69;4974807;28;20042;-35
2022/05/26 08:07:20;;;;;;;30.75;4.20;;;;;;;23.14;45.77;101991.97;4974673;29;20123;-35
2022/05/26 08:09:46;;;;;;;23.27;4.22;;;;;;;23.18;47.01;101996.78;4975364;29;20045;-34
2022/05/26 08:12:12;;;;;;;27.95;4.05;;;;;;;23.04;45.71;101987.09;4975503;29;20066;-34
2022/05/26 08:14:39;;;;;;;23.50;4.27;;;;;;;23.48;46.54;101998.53;4975595;29;20027;-32
2022/05/26 08:17:04;;;;;;;17.50;3.92;;;;;;;23.39;46.70;101997.25;4975628;29;20083;-34
2022/05/26 08:19:30;;;;;;;29.50;5.45;;;;;;;23.61;44.89;101991.97;4975598;29;20031;-33
2022/05/26 08:21:55;;;;;;;29.20;4.20;;;;;;;22.83;45.98;101996.72;4991205;28;20046;-34
2022/05/26 08:24:22;;;;;;;30.13;5.22;;;;;;;22.00;48.18;102002.91;4992324;28;20015;-32
2022/05/26 08:26:47;;;;;;;35.97;4.55;;;;;;;21.25;51.08;101996.53;4991151;28;20046;-36
2022/05/26 08:29:13;;;;;;;31.10;4.72;;;;;;;21.13;52.30;102013.91;4991662;28;20066;-33
2022/05/26 08:31:38;;;;;;;33.35;4.80;;;;;;;22.07;50.78;102010.00;4992406;28;20078;-34
2022/05/26 08:34:04;;;;;;;38.17;4.25;;;;;;;21.94;48.77;102018.38;4989400;28;20039;-35
2022/05/26 08:36:29;;;;;;;28.58;3.97;;;;;;;22.17;48.15;102009.47;4992918;28;20415;-37
2022/05/26 08:38:57;;;;;;;36.88;4.63;;;;;;;21.65;50.24;102018.06;4990614;28;20374;-33
2022/05/26 08:41:26;;;;;;;31.98;4.80;;;;;;;21.10;51.64;102026.16;4992479;28;20114;-33
2022/05/26 08:44:05;;;;;;;47.60;4.63;;;;;;;20.71;52.57;102027.28;4977068;28;20015;-33
2022/05/26 08:47:01;;;;;;;29.02;4.45;;;;;;;21.08;52.50;102020.06;4991327;28;20042;-33
2022/05/26 08:49:48;;;;;;;37.45;4.80;;;;;;;21.99;50.95;102039.63;4982376;28;20085;-36
2022/05/26 08:52:16;;;;;;;36.85;4.32;;;;;;;22.38;48.59;102040.22;4989927;28;20023;-33
2022/05/26 08:54:56;;;;;;;35.53;4.90;;;;;;;22.17;48.90;102049.72;4990470;28;20054;-33
2022/05/26 08:57:32;;;;;;;47.70;5.90;;;;;;;21.17;50.59;102045.25;4965289;28;20054;-35
2022/05/26 08:59:57;;;;;;;37.13;5.22;;;;;;;20.65;52.60;102041.84;4973769;28;20048;-34
2022/05/26 09:02:29;;;;;;;33.60;4.55;;;;;;;20.52;53.22;102051.78;4991687;28;20015;-33
2022/05/26 09:04:56;;;;;;;32.97;4.82;;;;;;;21.00;53.43;102043.06;4958963;28;20035;-33
2022/05/26 09:13:06;;;;;;;28.52;4.68;;;;;;;20.43;53.54;102058.53;4978305;28;20070;-33
2022/05/26 09:15:33;;;;;;;25.08;4.55;;;;;;;20.73;52.77;102056.09;4991621;28;20062;-34
2022/05/26 09:17:59;;;;;;;;;;;;;;;21.58;50.27;102063.03;4991703;28;20037;-33
2022/05/26 09:20:39;;;;;;;34.40;4.30;;;;;;;22.63;49.01;102057.38;4992218;28;19921;-37
2022/05/26 09:23:14;;;;;;;23.98;4.32;;;;;;;22.97;47.62;102060.50;4973574;28;20030;-36
2022/05/26 09:25:48;;;;;;;32.22;5.35;;;;;;;23.25;45.94;102059.84;4990714;28;20037;-36
2022/05/26 09:28:26;;;;;;;28.92;4.82;;;;;;;22.96;47.08;102054.19;4966853;28;20031;-34
2022/05/26 09:30:52;;;;;;;34.47;4.13;;;;;;;22.67;47.81;102058.59;4991426;28;20031;-35
2022/05/26 09:33:30;;;;;;;30.23;4.47;;;;;;;22.77;48.08;102069.00;4990380;28;20090;-36
2022/05/26 09:36:13;;;;;;;31.35;4.70;;;;;;;22.82;46.49;102076.53;4990335;28;20019;-36
2022/05/26 09:38:39;;;;;;;25.88;4.28;;;;;;;22.22;47.35;102077.31;4989927;28;20034;-34
2022/05/26 09:41:07;;;;;;;27.52;4.35;;;;;;;22.24;49.13;102077.94;4990129;28;20050;-39
2022/05/26 09:43:33;;;;;;;25.42;3.80;;;;;;;22.03;49.40;102068.25;4972973;28;20043;-33
2022/05/26 09:46:02;;;;;;;28.08;4.47;;;;;;;22.42;48.45;102072.44;4991265;28;20062;-35
2022/05/26 09:48:33;;;;;;;35.60;5.35;;;;;;;23.13;46.11;102069.97;4992573;28;20062;-34
2022/05/26 09:51:21;;;;;;;29.27;4.28;;;;;;;23.23;45.94;102073.78;4973543;28;20053;-33
2022/05/26 09:53:47;;;;;;;25.85;4.03;;;;;;;22.97;46.64;102071.47;4990611;28;20042;-33
2022/05/26 09:56:30;;;;;;;33.13;4.68;;;;;;;22.27;47.23;102091.19;4975224;28;20031;-33
2022/05/26 09:58:55;;;;;;;20.75;4.05;;;;;;;23.11;46.74;102081.16;4973748;28;20026;-33
2022/05/26 10:01:21;;;;;;;27.30;4.60;;;;;;;23.48;46.95;102091.13;4990854;28;20038;-32
2022/05/26 10:04:08;;;;;;;35.38;4.82;;;;;;;23.74;45.10;102089.84;4991049;28;20023;-33
2022/05/26 10:06:46;;;;;;;23.00;3.85;;;;;;;24.07;43.38;102094.72;4991943;28;20073;-33
2022/05/26 10:09:30;;;;;;;34.97;4.35;;;;;;;23.91;43.73;102087.19;4995179;28;20046;-35
2022/05/26 10:12:06;;;;;;;34.90;5.10;;;;;;;23.65;45.70;102092.94;4995448;28;20039;-33
2022/05/26 10:15:02;;;;;;;29.00;4.18;;;;;;;23.64;44.46;102085.78;4990203;28;20035;-33
2022/05/26 10:18:00;;;;;;;31.20;5.22;;;;;;;23.67;45.69;102078.94;4972132;28;20062;-33
2022/05/26 10:20:44;;;;;;;34.53;4.85;;;;;;;24.46;43.15;102087.59;4958630;28;20046;-34
2022/05/26 10:23:33;;;;;;;28.50;5.30;;;;;;;24.02;43.84;102086.38;4989875;28;20690;-33
2022/05/26 10:26:46;;;;;;;29.98;4.13;;;;;;;23.43;44.20;102089.97;4982611;28;20117;-33
2022/05/26 10:29:32;;;;;;;33.60;5.25;;;;;;;23.36;44.71;102093.88;4979549;28;20039;-33
2022/05/26 10:32:17;;;;;;;29.90;4.18;;;;;;;23.45;44.23;102086.94;4954036;29;20023;-33
2022/05/26 10:35:10;;;;;;;28.05;4.63;;;;;;;23.86;43.54;102083.28;4987802;28;20050;-33
2022/05/26 10:37:48;;;;;;;40.17;5.38;;;;;;;23.33;44.26;102078.72;4972580;28;20090;-34
2022/05/26 10:40:28;;;;;;;32.00;4.20;;;;;;;23.79;44.68;102073.47;4968900;28;20041;-33
2022/05/26 10:42:59;;;;;;;32.90;5.25;;;;;;;23.98;43.88;102076.91;4983252;28;20045;-34
2022/05/26 10:45:43;;;;;;;31.45;4.13;;;;;;;22.87;45.83;102080.25;4990728;28;20038;-34
2022/05/26 10:48:30;;;;;;;25.23;4.15;;;;;;;22.68;46.74;102070.41;4966181;28;20043;-33
2022/05/26 10:51:05;;;;;;;26.17;4.20;;;;;;;22.50;46.60;102083.09;4990166;28;20019;-33
2022/05/26 10:53:47;;;;;;;25.60;4.00;;;;;;;22.30;46.47;102087.97;4972912;28;20045;-33
2022/05/26 10:56:42;;;;;;;24.02;3.85;;;;;;;21.64;46.35;102082.16;4990227;28;20027;-35
2022/05/26 10:59:31;;;;;;;25.55;3.95;;;;;;;21.68;47.52;102075.16;4970449;29;20035;-35
2022/05/26 11:02:00;;;;;;;25.90;3.85;;;;;;;21.87;46.30;102070.53;4971326;28;20037;-33
2022/05/26 11:04:34;;;;;;;14.25;3.42;;;;;;;21.98;45.51;102063.44;4972209;28;20051;-33
2022/05/26 11:07:05;;;;;;;25.45;3.85;;;;;;;22.12;47.19;102056.75;4972728;28;20031;-33
2022/05/26 11:09:36;;;;;;;34.63;4.82;;;;;;;21.75;48.25;102061.41;4989761;28;20398;-35
2022/05/26 11:12:06;;;;;;;26.02;3.92;;;;;;;22.43;46.32;102054.06;4974525;28;20041;-34
2022/05/26 11:18:03;;;;;;;32.33;3.95;;;;;;;22.99;45.34;102061.94;4965676;28;20280;-35
2022/05/26 11:20:36;;;;;;;23.05;4.13;;;;;;;23.36;45.47;102047.19;4952930;29;20070;-33
2022/05/26 11:23:04;;;;;;;25.00;4.05;;;;;;;23.57;44.70;102052.06;4955619;28;20042;-33
2022/05/26 11:25:32;;;;;;;31.92;4.82;;;;;;;22.82;45.65;102049.91;4994938;28;20045;-33
2022/05/26 11:28:04;;;;;;;22.25;3.70;;;;;;;22.79;45.33;102061.38;4977730;28;20041;-36
2022/05/26 11:36:40;;;;;;;17.55;3.08;;;;;;;21.76;44.31;102056.75;4993388;28;20093;-33
2022/05/26 11:39:17;;;;;;;19.50;2.67;;;;;;;21.42;44.99;102078.16;4975476;28;20050;-35
2022/05/26 11:41:53;;;;;;;;;;;;;;;21.00;46.65;102077.81;4994464;28;20023;-33
2022/05/26 11:44:34;;;;;;;17.73;2.63;;;;;;;20.98;46.13;102071.72;4975754;28;19910;-37
2022/05/26 11:47:19;;;;;;;27.60;2.83;;;;;;;21.16;46.24;102096.44;4992536;28;20026;-35
2022/05/26 11:49:47;;;;;;;23.10;2.83;;;;;;;21.06;47.13;102082.38;4972705;28;20653;-35
2022/05/26 11:52:42;;;;;;;20.02;3.08;;;;;;;20.92;47.96;102067.13;4992841;28;20089;-36
2022/05/26 11:55:26;;;;;;;21.13;2.95;;;;;;;21.67;45.51;102081.72;4991108;28;20069;-37
2022/05/26 11:57:54;;;;;;;24.60;2.83;;;;;;;22.32;44.25;102083.13;4972952;28;20034;-35
2022/05/26 12:00:34;;;;;;;13.88;2.63;;;;;;;21.89;44.87;102084.00;4990839;28;20023;-36
2022/05/26 12:03:22;;;;;;;16.88;2.45;;;;;;;21.55;46.68;102082.66;4989568;28;20023;-33
2022/05/26 12:05:56;;;;;;;25.45;2.90;;;;;;;21.51;46.05;102070.47;4990840;28;20019;-35
2022/05/26 12:08:49;;;;;;;14.63;2.78;;;;;;;21.06;46.77;102074.19;4990284;28;20146;-36
2022/05/26 12:11:15;;;;;;;17.58;2.78;;;;;;;21.23;47.19;102078.06;4979928;28;20042;-34
2022/05/26 12:13:41;;;;;;;15.48;2.65;;;;;;;20.73;46.70;102091.66;4990132;28;20137;-34
2022/05/26 12:16:17;;;;;;;16.30;2.35;;;;;;;20.70;46.91;102086.63;4973102;28;20033;-37
2022/05/26 12:18:46;;;;;;;17.30;2.85;;;;;;;21.58;45.79;102096.75;4975929;28;20031;-34
2022/05/26 12:21:27;;;;;;;21.52;2.85;;;;;;;21.63;45.10;102094.16;4975156;28;20042;-36